createdAt,value
2018-06-01T00:02:24.382Z,73.40
2018-06-01T00:04:52.473Z,76.50
2018-06-01T00:07:19.979Z,78.30
2018-06-01T00:09:47.294Z,76.30
2018-06-01T00:12:14.716Z,73.50
2018-06-01T00:14:42.104Z,72.30
2018-06-01T00:17:10.238Z,72.80
2018-06-01T00:19:44.955Z,75.40
2018-06-01T00:22:14.970Z,76.90
2018-06-01T00:24:43.950Z,78.60
2018-06-01T00:27:14.110Z,77.20
2018-06-01T00:29:45.682Z,78.70
2018-06-01T00:32:12.979Z,75.70
2018-06-01T00:34:45.936Z,77.30
2018-06-01T00:37:15.073Z,72.90
2018-06-01T00:39:45.147Z,77.40
2018-06-01T00:42:13.350Z,80.20
2018-06-01T00:44:40.818Z,80.10
2018-06-01T00:47:08.124Z,81.10
2018-06-01T00:49:36.523Z,80.40
2018-06-01T00:52:04.610Z,82.80
2018-06-01T00:54:45.230Z,81.50
2018-06-01T00:57:12.558Z,83.30
2018-06-01T01:02:08.363Z,83.10
2018-06-01T01:04:36.466Z,82.30
2018-06-01T01:07:03.774Z,81.70
2018-06-01T01:09:31.806Z,80.70
2018-06-01T01:14:27.338Z,80.10
2018-06-01T01:19:23.694Z,77.30
2018-06-01T01:24:19.360Z,79.40
2018-06-01T01:29:14.961Z,78.90
2018-06-01T01:31:43.039Z,79.80
2018-06-01T01:36:39.154Z,81.20
2018-06-01T01:42:13.011Z,81.10
2018-06-01T01:44:40.422Z,81.20
2018-06-01T01:47:07.745Z,80.60
2018-06-01T01:49:35.001Z,81.50
2018-06-01T01:54:30.487Z,80.00
2018-06-01T01:56:57.925Z,79.80
2018-06-01T01:59:25.236Z,79.60
2018-06-01T02:04:21.516Z,78.90
2018-06-01T02:06:48.821Z,79.00
2018-06-01T02:11:44.401Z,78.40
2018-06-01T02:14:12.543Z,78.60
2018-06-01T02:16:40.565Z,79.00
2018-06-01T02:19:08.634Z,78.10
2018-06-01T02:21:35.878Z,77.90
2018-06-01T02:24:03.921Z,78.40
2018-06-01T02:26:31.386Z,78.90
2018-06-01T02:28:59.418Z,77.90
2018-06-01T02:36:23.959Z,73.50
2018-06-01T02:43:47.718Z,71.40
2018-06-01T02:48:43.256Z,71.70
2018-06-01T02:51:10.594Z,72.10
2018-06-01T02:53:38.694Z,71.40
2018-06-01T02:56:06.039Z,69.80
2018-06-01T02:58:34.375Z,69.50
2018-06-01T03:01:02.039Z,70.80
2018-06-01T03:03:30.127Z,71.10
2018-06-01T03:05:58.191Z,71.80
2018-06-01T03:08:26.530Z,71.60
2018-06-01T03:10:54.751Z,71.90
2018-06-01T03:13:22.015Z,71.10
2018-06-01T03:15:49.302Z,70.50
2018-06-01T03:20:45.554Z,71.80
2018-06-01T03:25:42.013Z,70.80
2018-06-01T03:28:09.338Z,71.00
2018-06-01T03:33:05.934Z,70.80
2018-06-01T03:35:33.182Z,69.60
2018-06-01T03:38:01.210Z,70.70
2018-06-01T03:40:28.717Z,71.40
2018-06-01T03:42:56.843Z,71.50
2018-06-01T03:45:24.117Z,72.30
2018-06-01T03:50:19.683Z,71.20
2018-06-01T03:52:47.021Z,70.80
2018-06-01T03:55:14.359Z,70.10
2018-06-01T03:57:42.389Z,69.60
2018-06-01T04:02:38.026Z,68.10
2018-06-01T04:05:05.338Z,67.30
2018-06-01T04:07:32.627Z,67.90
2018-06-01T04:09:59.938Z,68.10
2018-06-01T04:12:27.206Z,68.70
2018-06-01T04:17:23.448Z,67.00
2018-06-01T04:22:19.270Z,67.20
2018-06-01T04:24:46.564Z,68.60
2018-06-01T04:32:11.205Z,72.60
2018-06-01T04:39:35.324Z,73.00
2018-06-01T04:42:03.366Z,73.60
2018-06-01T04:44:31.427Z,74.20
2018-06-01T04:46:58.702Z,73.10
2018-06-01T04:51:54.218Z,73.00
2018-06-01T04:54:21.502Z,74.20
2018-06-01T04:56:48.845Z,73.60
2018-06-01T04:59:16.401Z,75.00
2018-06-01T05:01:44.478Z,73.50
2018-06-01T05:04:12.505Z,73.40
2018-06-01T05:06:39.814Z,72.20
2018-06-01T05:11:35.364Z,70.40
2018-06-01T05:14:02.639Z,70.00
2018-06-01T05:16:30.238Z,69.70
2018-06-01T05:18:58.302Z,70.40
2018-06-01T05:23:53.982Z,71.80
2018-06-01T05:26:21.244Z,71.10
2018-06-01T05:33:45.116Z,70.50
2018-06-01T05:43:37.178Z,70.90
2018-06-01T05:46:04.522Z,70.50
2018-06-01T05:48:32.769Z,71.00
2018-06-01T05:51:00.228Z,69.30
2018-06-01T05:55:55.739Z,67.00
2018-06-01T05:58:23.073Z,65.60
2018-06-01T06:00:51.139Z,67.10
2018-06-01T06:03:18.602Z,67.30
2018-06-01T06:05:45.887Z,66.80
2018-06-01T06:08:13.302Z,66.70
2018-06-01T06:10:41.342Z,66.80
2018-06-01T06:13:08.622Z,65.70
2018-06-01T06:15:36.798Z,65.30
2018-06-01T06:18:04.238Z,66.80
2018-06-01T06:20:32.518Z,66.90
2018-06-01T06:25:28.047Z,65.30
2018-06-01T06:27:56.219Z,65.10
2018-06-01T06:30:24.273Z,63.30
2018-06-01T06:32:52.352Z,62.90
2018-06-01T06:35:20.382Z,62.70
2018-06-01T06:37:47.708Z,62.80
2018-06-01T06:40:15.733Z,64.00
2018-06-01T06:42:43.019Z,63.70
2018-06-01T06:45:11.033Z,63.30
2018-06-01T06:47:38.306Z,62.80
2018-06-01T06:52:33.853Z,63.40
2018-06-01T06:55:01.188Z,63.80
2018-06-01T06:57:29.215Z,60.80
2018-06-01T06:59:56.670Z,61.30
2018-06-01T07:02:23.923Z,61.50
2018-06-01T07:04:51.979Z,63.70
2018-06-01T07:12:16.669Z,58.50
2018-06-01T07:14:44.714Z,59.40
2018-06-01T07:19:40.543Z,56.60
2018-06-01T07:22:07.841Z,52.60
2018-06-01T07:27:03.334Z,57.20
2018-06-01T07:29:30.636Z,56.00
2018-06-01T07:31:58.104Z,53.10
2018-06-01T07:34:25.398Z,52.70
2018-06-01T07:39:20.876Z,54.80
2018-06-01T07:44:17.147Z,55.80
2018-06-01T07:46:44.451Z,55.90
2018-06-01T07:51:40.658Z,52.10
2018-06-01T07:54:07.975Z,53.20
2018-06-01T07:56:35.998Z,52.50
2018-06-01T08:01:31.527Z,53.20
2018-06-01T08:03:58.831Z,54.60
2018-06-01T08:06:26.843Z,55.20
2018-06-01T08:08:54.954Z,54.90
2018-06-01T08:11:22.999Z,54.20
2018-06-01T08:18:46.819Z,53.40
2018-06-01T08:21:14.831Z,53.20
2018-06-01T08:23:42.165Z,54.50
2018-06-01T08:26:09.426Z,56.00
2018-06-01T08:28:37.473Z,55.70
2018-06-01T08:31:04.936Z,51.10
2018-06-01T08:33:32.242Z,53.40
2018-06-01T08:35:59.546Z,54.20
2018-06-01T08:38:26.837Z,54.00
2018-06-01T08:43:23.075Z,53.10
2018-06-01T08:45:51.086Z,55.50
2018-06-01T08:50:47.338Z,52.70
2018-06-01T08:53:14.573Z,52.70
2018-06-01T08:55:42.594Z,52.80
2018-06-01T08:58:09.942Z,51.80
2018-06-01T09:00:38.022Z,51.60
2018-06-01T09:03:05.499Z,53.90
2018-06-01T09:05:32.794Z,50.50
2018-06-01T09:10:29.039Z,50.40
2018-06-01T09:15:24.512Z,48.90
2018-06-01T09:17:51.851Z,48.60
2018-06-01T09:22:47.438Z,48.50
2018-06-01T09:27:53.026Z,50.40
2018-06-01T09:30:20.386Z,50.90
2018-06-01T09:35:32.744Z,50.20
2018-06-01T09:38:07.870Z,51.20
2018-06-01T09:43:12.694Z,48.30
2018-06-01T09:45:42.053Z,51.00
2018-06-01T09:50:45.589Z,47.90
2018-06-01T09:53:13.799Z,51.40
2018-06-01T09:55:43.122Z,47.30
2018-06-01T09:58:12.987Z,46.70
2018-06-01T10:00:49.051Z,48.80
2018-06-01T10:03:19.994Z,47.50
2018-06-01T10:05:50.182Z,46.30
2018-06-01T10:08:18.417Z,45.90
2018-06-01T10:10:46.577Z,44.80
2018-06-01T10:13:15.714Z,44.30
2018-06-01T10:15:43.012Z,45.70
2018-06-01T10:18:12.947Z,45.00
2018-06-01T10:20:43.395Z,43.80
2018-06-01T10:23:13.155Z,46.70
2018-06-01T10:25:42.357Z,43.20
2018-06-01T10:28:14.962Z,44.30
2018-06-01T10:30:44.226Z,44.20
2018-06-01T10:33:13.422Z,46.40
2018-06-01T10:35:40.738Z,46.90
2018-06-01T10:38:10.855Z,48.50
2018-06-01T10:40:41.042Z,47.20
2018-06-01T10:43:15.240Z,47.30
2018-06-01T10:45:53.149Z,47.40
2018-06-01T10:48:21.278Z,47.00
2018-06-01T10:50:51.925Z,47.30
2018-06-01T10:53:23.477Z,47.60
2018-06-01T10:55:52.122Z,46.10
2018-06-01T10:58:28.827Z,44.90
2018-06-01T11:01:04.222Z,45.80
2018-06-01T11:03:36.819Z,43.90
2018-06-01T11:06:05.806Z,46.50
2018-06-01T11:08:36.009Z,48.20
2018-06-01T11:11:05.113Z,48.10
2018-06-01T11:13:38.981Z,42.50
2018-06-01T11:16:11.011Z,46.50
2018-06-01T11:18:44.655Z,48.10
2018-06-01T11:21:17.449Z,46.30
2018-06-01T11:26:28.728Z,44.80
2018-06-01T11:29:13.675Z,43.50
2018-06-01T11:31:42.932Z,44.20
2018-06-01T11:34:17.020Z,46.00
2018-06-01T11:36:49.566Z,46.80
2018-06-01T11:39:19.554Z,46.80
2018-06-01T11:41:53.196Z,49.90
2018-06-01T11:44:24.906Z,51.20
2018-06-01T11:46:59.076Z,50.90
2018-06-01T11:49:33.334Z,50.30
2018-06-01T11:52:06.287Z,50.60
2018-06-01T11:54:40.292Z,49.90
2018-06-01T11:57:11.552Z,48.30
2018-06-01T11:59:42.652Z,47.20
2018-06-01T12:02:13.443Z,44.70
2018-06-01T12:04:45.669Z,43.20
2018-06-01T12:07:19.120Z,41.90
2018-06-01T12:09:56.691Z,42.90
2018-06-01T12:12:34.352Z,45.10
2018-06-01T12:15:11.273Z,41.30
2018-06-01T12:17:51.097Z,40.80
2018-06-01T12:20:31.335Z,39.30
2018-06-01T12:23:01.456Z,39.70
2018-06-01T12:25:28.798Z,44.20
2018-06-01T12:27:56.118Z,44.20
2018-06-01T12:30:23.428Z,46.90
2018-06-01T12:32:50.698Z,46.00
2018-06-01T12:35:18.023Z,45.30
2018-06-01T12:37:45.723Z,44.70
2018-06-01T12:40:13.019Z,44.50
2018-06-01T12:42:40.323Z,45.00
2018-06-01T12:45:07.655Z,45.10
2018-06-01T12:47:35.773Z,45.00
2018-06-01T12:50:03.095Z,44.80
2018-06-01T12:52:30.581Z,44.20
2018-06-01T12:54:57.861Z,43.40
2018-06-01T12:57:26.064Z,40.80
2018-06-01T12:59:53.338Z,42.30
2018-06-01T13:02:20.698Z,43.10
2018-06-01T13:04:47.998Z,42.90
2018-06-01T13:07:15.337Z,43.80
2018-06-01T13:09:43.358Z,44.50
2018-06-01T13:12:10.653Z,45.30
2018-06-01T13:14:37.987Z,45.50
2018-06-01T13:17:05.305Z,44.80
2018-06-01T13:19:32.586Z,45.30
2018-06-01T13:21:59.846Z,45.30
2018-06-01T13:24:27.233Z,45.20
2018-06-01T13:26:55.540Z,45.30
2018-06-01T13:29:22.821Z,45.10
2018-06-01T13:31:50.087Z,45.10
2018-06-01T13:34:17.379Z,40.20
2018-06-01T13:36:46.665Z,43.90
2018-06-01T13:41:42.230Z,40.10
2018-06-01T13:44:09.577Z,39.90
2018-06-01T13:46:37.039Z,39.70
2018-06-01T13:49:04.542Z,42.90
2018-06-01T13:51:31.827Z,37.50
2018-06-01T13:53:59.930Z,38.90
2018-06-01T13:58:55.505Z,38.00
2018-06-01T14:01:22.942Z,34.90
2018-06-01T14:03:50.231Z,36.10
2018-06-01T14:06:17.531Z,43.60
2018-06-01T14:08:44.793Z,44.50
2018-06-01T14:11:12.893Z,45.50
2018-06-01T14:16:08.473Z,46.70
2018-06-01T14:18:35.787Z,47.30
2018-06-01T14:21:03.131Z,47.60
2018-06-01T14:25:59.382Z,47.60
2018-06-01T14:28:26.929Z,47.40
2018-06-01T14:35:51.378Z,48.20
2018-06-01T14:43:15.274Z,48.40
2018-06-01T14:48:10.815Z,48.50
2018-06-01T14:50:38.146Z,48.70
2018-06-01T14:53:06.391Z,48.90
2018-06-01T14:55:33.699Z,48.90
2018-06-01T14:58:01.741Z,49.00
2018-06-01T15:02:57.253Z,49.00
2018-06-01T15:07:52.810Z,49.00
2018-06-01T15:10:20.425Z,48.90
2018-06-01T15:12:47.897Z,49.20
2018-06-01T15:15:15.525Z,49.30
2018-06-01T15:17:43.665Z,49.50
2018-06-01T15:20:11.140Z,49.40
2018-06-01T15:22:38.415Z,49.40
2018-06-01T15:25:05.734Z,49.40
2018-06-01T15:27:33.030Z,49.40
2018-06-01T15:30:00.352Z,49.60
2018-06-01T15:32:27.639Z,49.70
2018-06-01T15:34:54.951Z,49.80
2018-06-01T15:37:22.243Z,50.00
2018-06-01T15:39:49.541Z,50.10
2018-06-01T15:42:17.641Z,50.30
2018-06-01T15:44:44.913Z,50.30
2018-06-01T15:47:12.210Z,50.30
2018-06-01T15:49:40.270Z,50.30
2018-06-01T15:52:07.562Z,50.20
2018-06-01T15:54:34.838Z,50.80
2018-06-01T15:57:02.198Z,50.30
2018-06-01T15:59:29.502Z,50.40
2018-06-01T16:01:57.519Z,50.50
2018-06-01T16:04:24.845Z,50.50
2018-06-01T16:06:52.144Z,50.60
2018-06-01T16:11:47.823Z,50.70
2018-06-01T16:14:15.881Z,50.70
2018-06-01T16:16:43.350Z,51.40
2018-06-01T16:19:10.659Z,50.80
2018-06-01T16:21:38.742Z,50.40
2018-06-01T16:26:34.274Z,50.70
2018-06-01T16:31:29.991Z,50.70
2018-06-01T16:33:57.222Z,50.70
2018-06-01T16:41:21.776Z,51.10
2018-06-01T16:43:49.069Z,51.40
2018-06-01T16:46:17.124Z,51.50
2018-06-01T16:48:44.498Z,52.10
2018-06-01T16:51:11.807Z,52.00
2018-06-01T16:53:39.190Z,52.30
2018-06-01T16:56:07.227Z,52.00
2018-06-01T16:58:34.601Z,51.70
2018-06-01T17:01:02.654Z,51.40
2018-06-01T17:05:58.180Z,50.80
2018-06-01T17:08:25.506Z,50.40
2018-06-01T17:10:54.051Z,50.40
2018-06-01T17:13:21.354Z,50.60
2018-06-01T17:18:16.902Z,50.20
2018-06-01T17:23:12.427Z,50.10
2018-06-01T17:25:40.513Z,50.10
2018-06-01T17:30:36.842Z,50.00
2018-06-01T17:35:32.413Z,49.80
2018-06-01T17:38:00.533Z,49.80
2018-06-01T17:40:27.843Z,49.80
2018-06-01T17:42:55.918Z,49.90
2018-06-01T17:45:23.286Z,49.90
2018-06-01T17:47:50.582Z,50.00
2018-06-01T17:55:14.534Z,49.90
2018-06-01T17:57:41.826Z,50.00
2018-06-01T18:00:09.887Z,49.80
2018-06-01T18:05:05.444Z,50.00
2018-06-01T18:12:29.283Z,49.30
2018-06-01T18:14:56.633Z,49.90
2018-06-01T18:17:23.938Z,50.00
2018-06-01T18:19:51.259Z,50.00
2018-06-01T18:22:18.526Z,50.10
2018-06-01T18:24:46.224Z,50.20
2018-06-01T18:27:14.255Z,50.20
2018-06-01T18:29:41.617Z,50.30
2018-06-01T18:32:08.965Z,50.30
2018-06-01T18:34:36.291Z,50.30
2018-06-01T18:37:03.746Z,50.30
2018-06-01T18:39:31.034Z,50.30
2018-06-01T18:41:58.413Z,50.30
2018-06-01T18:44:26.459Z,50.30
2018-06-01T18:49:22.223Z,50.40
2018-06-01T18:54:18.646Z,49.50
2018-06-01T18:56:45.943Z,49.00
2018-06-01T18:59:13.963Z,50.60
2018-06-01T19:01:41.263Z,49.40
2018-06-01T19:04:08.825Z,50.90
2018-06-01T19:06:36.847Z,49.30
2018-06-01T19:09:05.208Z,48.70
2018-06-01T19:11:32.546Z,50.00
2018-06-01T19:16:28.150Z,49.10
2018-06-01T19:18:56.199Z,51.50
2018-06-01T19:23:51.743Z,49.50
2018-06-01T19:28:48.034Z,49.10
2018-06-01T19:31:16.226Z,48.80
2018-06-01T19:33:43.570Z,49.00
2018-06-01T19:36:10.999Z,49.80
2018-06-01T19:38:38.370Z,50.80
2018-06-01T19:41:05.682Z,51.00
2018-06-01T19:43:33.738Z,51.80
2018-06-01T19:48:29.263Z,53.00
2018-06-01T19:53:24.770Z,54.10
2018-06-01T19:58:20.365Z,54.60
2018-06-01T20:03:15.997Z,55.10
2018-06-01T20:05:43.288Z,55.60
2018-06-01T20:08:10.599Z,55.30
2018-06-01T20:10:37.923Z,54.60
2018-06-01T20:13:06.010Z,54.70
2018-06-01T20:15:33.302Z,54.60
2018-06-01T20:20:28.815Z,55.30
2018-06-01T20:22:56.821Z,54.30
2018-06-01T20:25:24.155Z,55.50
2018-06-01T20:30:19.663Z,53.50
2018-06-01T20:32:46.966Z,53.40
2018-06-01T20:35:14.287Z,53.10
2018-06-01T20:37:42.308Z,53.00
2018-06-01T20:40:10.344Z,53.10
2018-06-01T20:42:37.627Z,53.00
2018-06-01T20:45:05.752Z,52.40
2018-06-01T20:47:33.048Z,54.50
2018-06-01T20:50:01.144Z,55.10
2018-06-01T20:54:56.645Z,54.10
2018-06-01T20:57:24.691Z,54.10
2018-06-01T20:59:51.963Z,54.10
2018-06-01T21:02:19.311Z,54.10
2018-06-01T21:04:47.342Z,53.40
2018-06-01T21:07:14.678Z,53.70
2018-06-01T21:09:41.961Z,53.30
2018-06-01T21:12:09.262Z,53.70
2018-06-01T21:14:37.356Z,52.60
2018-06-01T21:17:04.725Z,53.20
2018-06-01T21:22:00.329Z,50.70
2018-06-01T21:24:27.622Z,53.00
2018-06-01T21:26:55.052Z,51.40
2018-06-01T21:29:22.419Z,51.30
2018-06-01T21:31:49.781Z,50.60
2018-06-01T21:36:45.807Z,51.40
2018-06-01T21:39:13.265Z,53.70
2018-06-01T21:41:40.572Z,54.90
2018-06-01T21:44:08.618Z,54.90
2018-06-01T21:46:36.745Z,54.70
2018-06-01T21:51:33.036Z,54.10
2018-06-01T21:54:01.239Z,54.70
2018-06-01T21:56:28.830Z,54.80
2018-06-01T21:58:56.026Z,54.60
2018-06-01T22:01:24.070Z,52.30
2018-06-01T22:03:52.101Z,53.90
2018-06-01T22:06:19.398Z,54.40
2018-06-01T22:08:46.837Z,52.20
2018-06-01T22:11:14.432Z,51.40
2018-06-01T22:13:41.778Z,53.80
2018-06-01T22:18:38.086Z,55.80
2018-06-01T22:21:05.347Z,55.30
2018-06-01T22:23:32.650Z,54.20
2018-06-01T22:28:28.223Z,55.10
2018-06-01T22:30:55.510Z,55.80
2018-06-01T22:33:22.797Z,54.60
2018-06-01T22:35:50.862Z,54.80
2018-06-01T22:40:46.399Z,54.60
2018-06-01T22:43:14.494Z,54.50
2018-06-01T22:45:41.801Z,54.60
2018-06-01T22:50:37.574Z,54.10
2018-06-01T22:53:05.650Z,54.20
2018-06-01T22:55:32.995Z,54.50
2018-06-01T22:58:00.282Z,54.50
2018-06-01T23:00:29.299Z,54.70
2018-06-01T23:02:56.718Z,54.30
2018-06-01T23:05:23.979Z,54.90
2018-06-01T23:07:51.285Z,55.00
2018-06-01T23:10:18.568Z,54.50
2018-06-01T23:12:46.653Z,54.30
2018-06-01T23:15:14.774Z,54.70
2018-06-01T23:20:11.057Z,54.70
2018-06-01T23:22:38.420Z,54.00
2018-06-01T23:27:34.027Z,54.70
2018-06-01T23:30:02.091Z,55.20
2018-06-01T23:34:58.495Z,54.10
2018-06-01T23:37:25.827Z,54.90
2018-06-01T23:39:53.070Z,55.10
2018-06-01T23:42:20.444Z,54.90
2018-06-01T23:44:47.718Z,51.70
2018-06-01T23:47:15.003Z,52.70
2018-06-01T23:49:43.050Z,51.90
2018-06-01T23:54:39.332Z,54.40
2018-06-01T23:57:06.655Z,53.00
